sensor_id;sensor_type;location;lat;lon;timestamp;P1;durP1;ratioP1;P2;durP2;ratioP2
5762;SDS011;2906;53.282;9.508;2022-08-14T00:00:36;100.43;;;78.93;;
5762;SDS011;2906;53.282;9.508;2022-08-14T00:01:37;134.17;;;119.57;;
5762;SDS011;2906;53.282;9.508;2022-08-14T00:02:40;150.47;;;135.20;;
5762;SDS011;2906;53.282;9.508;2022-08-14T00:03:43;70.97;;;29.33;;
5762;SDS011;2906;53.282;9.508;2022-08-14T00:04:45;129.13;;;115.07;;
5762;SDS011;2906;53.282;9.508;2022-08-14T00:05:46;92.73;;;62.30;;
5762;SDS011;2906;53.282;9.508;2022-08-14T00:06:48;54.40;;;15.90;;
5762;SDS011;2906;53.282;9.508;2022-08-14T00:07:50;84.30;;;52.40;;
5762;SDS011;2906;53.282;9.508;2022-08-14T00:08:52;67.03;;;27.90;;
5762;SDS011;2906;53.282;9.508;2022-08-14T00:09:54;75.90;;;42.27;;
5762;SDS011;2906;53.282;9.508;2022-08-14T00:10:56;59.67;;;22.80;;
5762;SDS011;2906;53.282;9.508;2022-08-14T00:11:58;61.90;;;22.77;;
5762;SDS011;2906;53.282;9.508;2022-08-14T00:13:00;105.77;;;78.83;;
5762;SDS011;2906;53.282;9.508;2022-08-14T00:14:02;73.77;;;43.40;;
5762;SDS011;2906;53.282;9.508;2022-08-14T00:15:04;126.43;;;112.13;;
5762;SDS011;2906;53.282;9.508;2022-08-14T00:16:07;132.17;;;118.30;;
5762;SDS011;2906;53.282;9.508;2022-08-14T00:17:13;115.87;;;100.80;;
5762;SDS011;2906;53.282;9.508;2022-08-14T00:18:16;162.33;;;146.70;;
5762;SDS011;2906;53.282;9.508;2022-08-14T00:19:19;113.47;;;100.73;;
5762;SDS011;2906;53.282;9.508;2022-08-14T00:20:25;174.40;;;157.93;;
5762;SDS011;2906;53.282;9.508;2022-08-14T00:21:27;157.90;;;142.50;;
5762;SDS011;2906;53.282;9.508;2022-08-14T00:22:29;151.87;;;136.87;;
5762;SDS011;2906;53.282;9.508;2022-08-14T00:23:30;174.07;;;157.93;;
5762;SDS011;2906;53.282;9.508;2022-08-14T00:24:32;184.17;;;167.00;;
5762;SDS011;2906;53.282;9.508;2022-08-14T00:25:34;123.67;;;107.03;;
5762;SDS011;2906;53.282;9.508;2022-08-14T00:26:36;177.47;;;160.80;;
5762;SDS011;2906;53.282;9.508;2022-08-14T00:27:37;182.20;;;165.10;;
5762;SDS011;2906;53.282;9.508;2022-08-14T00:28:39;186.80;;;169.33;;
5762;SDS011;2906;53.282;9.508;2022-08-14T00:29:42;195.37;;;177.07;;
5762;SDS011;2906;53.282;9.508;2022-08-14T00:30:43;176.60;;;160.17;;
5762;SDS011;2906;53.282;9.508;2022-08-14T00:31:46;181.97;;;165.30;;
5762;SDS011;2906;53.282;9.508;2022-08-14T00:32:47;199.80;;;181.97;;
5762;SDS011;2906;53.282;9.508;2022-08-14T00:33:49;177.30;;;160.80;;
5762;SDS011;2906;53.282;9.508;2022-08-14T00:34:52;187.27;;;170.03;;
5762;SDS011;2906;53.282;9.508;2022-08-14T00:35:55;197.97;;;180.13;;
5762;SDS011;2906;53.282;9.508;2022-08-14T00:36:56;188.47;;;170.47;;
5762;SDS011;2906;53.282;9.508;2022-08-14T00:37:59;182.53;;;165.47;;
5762;SDS011;2906;53.282;9.508;2022-08-14T00:39:00;190.70;;;173.30;;
5762;SDS011;2906;53.282;9.508;2022-08-14T00:40:02;187.37;;;170.07;;
5762;SDS011;2906;53.282;9.508;2022-08-14T00:41:04;181.37;;;164.80;;
5762;SDS011;2906;53.282;9.508;2022-08-14T00:42:07;181.03;;;164.07;;
5762;SDS011;2906;53.282;9.508;2022-08-14T00:43:08;158.73;;;143.37;;
5762;SDS011;2906;53.282;9.508;2022-08-14T00:44:11;174.47;;;157.80;;
5762;SDS011;2906;53.282;9.508;2022-08-14T00:45:13;192.83;;;175.50;;
5762;SDS011;2906;53.282;9.508;2022-08-14T00:46:16;186.87;;;169.53;;
5762;SDS011;2906;53.282;9.508;2022-08-14T00:47:17;149.53;;;135.03;;
5762;SDS011;2906;53.282;9.508;2022-08-14T00:48:20;149.37;;;134.90;;
5762;SDS011;2906;53.282;9.508;2022-08-14T00:49:21;163.43;;;147.90;;
5762;SDS011;2906;53.282;9.508;2022-08-14T00:50:25;139.10;;;125.27;;
5762;SDS011;2906;53.282;9.508;2022-08-14T00:51:30;154.33;;;138.43;;
5762;SDS011;2906;53.282;9.508;2022-08-14T00:52:33;125.60;;;112.33;;
5762;SDS011;2906;53.282;9.508;2022-08-14T00:53:35;144.80;;;130.70;;
5762;SDS011;2906;53.282;9.508;2022-08-14T00:54:38;124.93;;;111.87;;
5762;SDS011;2906;53.282;9.508;2022-08-14T00:55:40;121.63;;;108.93;;
5762;SDS011;2906;53.282;9.508;2022-08-14T00:56:43;133.73;;;120.07;;
5762;SDS011;2906;53.282;9.508;2022-08-14T00:57:45;113.73;;;101.63;;
5762;SDS011;2906;53.282;9.508;2022-08-14T00:59:07;101.83;;;90.70;;
5762;SDS011;2906;53.282;9.508;2022-08-14T01:00:11;121.93;;;97.50;;
5762;SDS011;2906;53.282;9.508;2022-08-14T01:01:14;120.80;;;108.07;;
5762;SDS011;2906;53.282;9.508;2022-08-14T01:02:18;106.10;;;93.57;;
5762;SDS011;2906;53.282;9.508;2022-08-14T01:03:24;111.20;;;96.60;;
5762;SDS011;2906;53.282;9.508;2022-08-14T01:04:26;102.97;;;90.43;;
5762;SDS011;2906;53.282;9.508;2022-08-14T01:05:32;103.87;;;88.20;;
5762;SDS011;2906;53.282;9.508;2022-08-14T01:06:34;111.13;;;99.00;;
5762;SDS011;2906;53.282;9.508;2022-08-14T01:07:36;106.90;;;95.17;;
5762;SDS011;2906;53.282;9.508;2022-08-14T01:08:38;125.50;;;111.97;;
5762;SDS011;2906;53.282;9.508;2022-08-14T01:09:41;122.13;;;109.43;;
5762;SDS011;2906;53.282;9.508;2022-08-14T01:10:42;115.23;;;102.93;;
5762;SDS011;2906;53.282;9.508;2022-08-14T01:11:53;110.97;;;97.10;;
5762;SDS011;2906;53.282;9.508;2022-08-14T01:12:56;110.23;;;98.53;;
5762;SDS011;2906;53.282;9.508;2022-08-14T01:13:58;117.63;;;105.17;;
5762;SDS011;2906;53.282;9.508;2022-08-14T01:15:00;140.30;;;125.90;;
5762;SDS011;2906;53.282;9.508;2022-08-14T01:16:06;120.13;;;107.27;;
5762;SDS011;2906;53.282;9.508;2022-08-14T01:17:08;119.70;;;106.83;;
5762;SDS011;2906;53.282;9.508;2022-08-14T01:18:10;119.80;;;107.13;;
5762;SDS011;2906;53.282;9.508;2022-08-14T01:19:28;121.40;;;108.50;;
5762;SDS011;2906;53.282;9.508;2022-08-14T01:20:45;116.97;;;104.00;;
5762;SDS011;2906;53.282;9.508;2022-08-14T01:22:03;135.20;;;121.73;;
5762;SDS011;2906;53.282;9.508;2022-08-14T01:23:07;117.80;;;105.27;;
5762;SDS011;2906;53.282;9.508;2022-08-14T01:24:09;119.87;;;106.77;;
5762;SDS011;2906;53.282;9.508;2022-08-14T01:25:14;119.23;;;106.33;;
5762;SDS011;2906;53.282;9.508;2022-08-14T01:26:16;116.77;;;104.47;;
5762;SDS011;2906;53.282;9.508;2022-08-14T01:27:20;120.97;;;108.10;;
5762;SDS011;2906;53.282;9.508;2022-08-14T01:28:22;109.33;;;97.20;;
5762;SDS011;2906;53.282;9.508;2022-08-14T01:29:25;113.27;;;94.33;;
5762;SDS011;2906;53.282;9.508;2022-08-14T01:30:26;112.67;;;100.70;;
5762;SDS011;2906;53.282;9.508;2022-08-14T01:31:32;114.50;;;101.97;;
5762;SDS011;2906;53.282;9.508;2022-08-14T01:32:33;106.23;;;94.63;;
5762;SDS011;2906;53.282;9.508;2022-08-14T01:33:38;119.10;;;105.83;;
5762;SDS011;2906;53.282;9.508;2022-08-14T01:34:45;113.73;;;101.27;;
5762;SDS011;2906;53.282;9.508;2022-08-14T01:35:48;129.30;;;116.23;;
5762;SDS011;2906;53.282;9.508;2022-08-14T01:36:49;111.80;;;94.23;;
5762;SDS011;2906;53.282;9.508;2022-08-14T01:37:54;117.07;;;104.43;;
5762;SDS011;2906;53.282;9.508;2022-08-14T01:38:55;111.67;;;99.73;;
5762;SDS011;2906;53.282;9.508;2022-08-14T01:39:57;120.93;;;108.17;;
5762;SDS011;2906;53.282;9.508;2022-08-14T01:40:59;129.67;;;116.47;;
5762;SDS011;2906;53.282;9.508;2022-08-14T01:42:01;121.73;;;109.03;;
5762;SDS011;2906;53.282;9.508;2022-08-14T01:43:06;121.37;;;108.90;;
5762;SDS011;2906;53.282;9.508;2022-08-14T01:44:12;129.63;;;115.90;;
5762;SDS011;2906;53.282;9.508;2022-08-14T01:45:14;107.07;;;95.67;;
5762;SDS011;2906;53.282;9.508;2022-08-14T01:46:17;131.03;;;117.77;;
5762;SDS011;2906;53.282;9.508;2022-08-14T01:47:19;124.30;;;111.50;;
5762;SDS011;2906;53.282;9.508;2022-08-14T01:48:21;116.40;;;104.17;;
5762;SDS011;2906;53.282;9.508;2022-08-14T01:49:22;128.13;;;115.03;;
5762;SDS011;2906;53.282;9.508;2022-08-14T01:50:25;114.87;;;102.37;;
5762;SDS011;2906;53.282;9.508;2022-08-14T01:51:26;109.27;;;97.27;;
5762;SDS011;2906;53.282;9.508;2022-08-14T01:52:30;120.07;;;107.43;;
5762;SDS011;2906;53.282;9.508;2022-08-14T01:53:33;115.37;;;102.97;;
5762;SDS011;2906;53.282;9.508;2022-08-14T01:54:35;132.27;;;119.00;;
5762;SDS011;2906;53.282;9.508;2022-08-14T01:55:37;133.97;;;120.77;;
5762;SDS011;2906;53.282;9.508;2022-08-14T01:56:40;115.57;;;103.03;;
5762;SDS011;2906;53.282;9.508;2022-08-14T01:57:43;125.33;;;112.57;;
5762;SDS011;2906;53.282;9.508;2022-08-14T01:58:46;120.70;;;108.10;;
5762;SDS011;2906;53.282;9.508;2022-08-14T01:59:48;125.77;;;112.13;;
5762;SDS011;2906;53.282;9.508;2022-08-14T02:00:51;150.83;;;136.57;;
5762;SDS011;2906;53.282;9.508;2022-08-14T02:01:54;148.10;;;133.93;;
5762;SDS011;2906;53.282;9.508;2022-08-14T02:02:58;124.33;;;112.17;;
5762;SDS011;2906;53.282;9.508;2022-08-14T02:04:00;148.07;;;133.87;;
5762;SDS011;2906;53.282;9.508;2022-08-14T02:05:03;125.27;;;111.90;;
5762;SDS011;2906;53.282;9.508;2022-08-14T02:06:04;155.23;;;140.77;;
5762;SDS011;2906;53.282;9.508;2022-08-14T02:07:07;161.90;;;146.97;;
5762;SDS011;2906;53.282;9.508;2022-08-14T02:08:09;139.40;;;125.93;;
5762;SDS011;2906;53.282;9.508;2022-08-14T02:09:12;178.27;;;162.33;;
5762;SDS011;2906;53.282;9.508;2022-08-14T02:10:13;169.00;;;153.50;;
5762;SDS011;2906;53.282;9.508;2022-08-14T02:11:16;192.13;;;175.27;;
5762;SDS011;2906;53.282;9.508;2022-08-14T02:12:21;187.73;;;171.30;;
5762;SDS011;2906;53.282;9.508;2022-08-14T02:13:24;169.77;;;154.23;;
5762;SDS011;2906;53.282;9.508;2022-08-14T02:14:25;177.73;;;161.10;;
5762;SDS011;2906;53.282;9.508;2022-08-14T02:15:28;184.43;;;168.03;;
5762;SDS011;2906;53.282;9.508;2022-08-14T02:16:30;157.87;;;143.00;;
5762;SDS011;2906;53.282;9.508;2022-08-14T02:17:33;202.60;;;184.77;;
5762;SDS011;2906;53.282;9.508;2022-08-14T02:18:34;204.93;;;187.33;;
5762;SDS011;2906;53.282;9.508;2022-08-14T02:19:37;178.13;;;162.27;;
5762;SDS011;2906;53.282;9.508;2022-08-14T02:20:38;179.87;;;163.57;;
5762;SDS011;2906;53.282;9.508;2022-08-14T02:21:41;201.73;;;184.53;;
5762;SDS011;2906;53.282;9.508;2022-08-14T02:22:42;188.73;;;172.03;;
5762;SDS011;2906;53.282;9.508;2022-08-14T02:23:46;209.47;;;191.20;;
5762;SDS011;2906;53.282;9.508;2022-08-14T02:24:49;197.77;;;179.90;;
5762;SDS011;2906;53.282;9.508;2022-08-14T02:25:51;201.97;;;184.40;;
5762;SDS011;2906;53.282;9.508;2022-08-14T02:26:53;190.37;;;173.03;;
5762;SDS011;2906;53.282;9.508;2022-08-14T02:27:56;206.87;;;189.30;;
5762;SDS011;2906;53.282;9.508;2022-08-14T02:28:59;204.03;;;186.33;;
5762;SDS011;2906;53.282;9.508;2022-08-14T02:30:02;210.33;;;192.03;;
5762;SDS011;2906;53.282;9.508;2022-08-14T02:31:03;174.27;;;159.03;;
5762;SDS011;2906;53.282;9.508;2022-08-14T02:32:07;135.87;;;122.90;;
5762;SDS011;2906;53.282;9.508;2022-08-14T02:33:10;166.33;;;150.83;;
5762;SDS011;2906;53.282;9.508;2022-08-14T02:34:13;167.07;;;152.07;;
5762;SDS011;2906;53.282;9.508;2022-08-14T02:35:17;170.07;;;154.53;;
5762;SDS011;2906;53.282;9.508;2022-08-14T02:36:19;165.23;;;149.83;;
5762;SDS011;2906;53.282;9.508;2022-08-14T02:37:21;179.10;;;162.90;;
5762;SDS011;2906;53.282;9.508;2022-08-14T02:38:23;182.43;;;166.17;;
5762;SDS011;2906;53.282;9.508;2022-08-14T02:39:25;191.17;;;174.60;;
5762;SDS011;2906;53.282;9.508;2022-08-14T02:40:28;177.43;;;161.70;;
5762;SDS011;2906;53.282;9.508;2022-08-14T02:41:33;187.40;;;170.70;;
5762;SDS011;2906;53.282;9.508;2022-08-14T02:42:35;171.23;;;155.63;;
5762;SDS011;2906;53.282;9.508;2022-08-14T02:43:38;174.97;;;158.87;;
5762;SDS011;2906;53.282;9.508;2022-08-14T02:44:41;183.83;;;167.73;;
5762;SDS011;2906;53.282;9.508;2022-08-14T02:45:42;164.33;;;149.13;;
5762;SDS011;2906;53.282;9.508;2022-08-14T02:46:44;160.13;;;145.17;;
5762;SDS011;2906;53.282;9.508;2022-08-14T02:47:46;162.10;;;147.03;;
5762;SDS011;2906;53.282;9.508;2022-08-14T02:48:48;154.53;;;140.17;;
5762;SDS011;2906;53.282;9.508;2022-08-14T02:49:49;155.10;;;140.80;;
5762;SDS011;2906;53.282;9.508;2022-08-14T02:50:53;144.13;;;130.00;;
5762;SDS011;2906;53.282;9.508;2022-08-14T02:51:55;149.87;;;135.73;;
5762;SDS011;2906;53.282;9.508;2022-08-14T02:52:57;142.33;;;127.47;;
5762;SDS011;2906;53.282;9.508;2022-08-14T02:53:59;132.83;;;119.53;;
5762;SDS011;2906;53.282;9.508;2022-08-14T02:55:01;134.27;;;121.03;;
5762;SDS011;2906;53.282;9.508;2022-08-14T02:56:07;104.50;;;91.10;;
5762;SDS011;2906;53.282;9.508;2022-08-14T02:57:09;74.00;;;41.17;;
5762;SDS011;2906;53.282;9.508;2022-08-14T02:58:10;72.37;;;39.73;;
5762;SDS011;2906;53.282;9.508;2022-08-14T02:59:13;61.20;;;18.80;;
5762;SDS011;2906;53.282;9.508;2022-08-14T03:00:16;57.30;;;16.33;;
5762;SDS011;2906;53.282;9.508;2022-08-14T03:01:19;62.93;;;22.40;;
5762;SDS011;2906;53.282;9.508;2022-08-14T03:02:22;57.33;;;15.53;;
5762;SDS011;2906;53.282;9.508;2022-08-14T03:03:23;54.47;;;14.73;;
5762;SDS011;2906;53.282;9.508;2022-08-14T03:04:25;67.37;;;22.30;;
5762;SDS011;2906;53.282;9.508;2022-08-14T03:05:29;63.47;;;22.73;;
5762;SDS011;2906;53.282;9.508;2022-08-14T03:06:30;55.37;;;17.03;;
5762;SDS011;2906;53.282;9.508;2022-08-14T03:07:32;62.17;;;27.87;;
5762;SDS011;2906;53.282;9.508;2022-08-14T03:08:34;64.50;;;19.67;;
5762;SDS011;2906;53.282;9.508;2022-08-14T03:09:37;57.93;;;17.23;;
5762;SDS011;2906;53.282;9.508;2022-08-14T03:10:39;59.03;;;23.17;;
5762;SDS011;2906;53.282;9.508;2022-08-14T03:11:43;64.73;;;34.00;;
5762;SDS011;2906;53.282;9.508;2022-08-14T03:12:44;88.47;;;59.93;;
5762;SDS011;2906;53.282;9.508;2022-08-14T03:13:47;67.23;;;35.10;;
5762;SDS011;2906;53.282;9.508;2022-08-14T03:14:50;73.33;;;44.50;;
5762;SDS011;2906;53.282;9.508;2022-08-14T03:15:52;72.53;;;39.73;;
5762;SDS011;2906;53.282;9.508;2022-08-14T03:16:54;82.03;;;47.77;;
5762;SDS011;2906;53.282;9.508;2022-08-14T03:17:56;65.27;;;34.80;;
5762;SDS011;2906;53.282;9.508;2022-08-14T03:18:57;73.60;;;45.63;;
5762;SDS011;2906;53.282;9.508;2022-08-14T03:20:00;67.07;;;33.03;;
5762;SDS011;2906;53.282;9.508;2022-08-14T03:21:04;75.60;;;41.97;;
5762;SDS011;2906;53.282;9.508;2022-08-14T03:22:07;68.30;;;33.60;;
5762;SDS011;2906;53.282;9.508;2022-08-14T03:23:08;87.33;;;57.43;;
5762;SDS011;2906;53.282;9.508;2022-08-14T03:24:11;75.30;;;45.50;;
5762;SDS011;2906;53.282;9.508;2022-08-14T03:25:12;99.13;;;75.87;;
5762;SDS011;2906;53.282;9.508;2022-08-14T03:26:15;92.77;;;77.90;;
5762;SDS011;2906;53.282;9.508;2022-08-14T03:27:18;95.27;;;83.67;;
5762;SDS011;2906;53.282;9.508;2022-08-14T03:28:20;81.23;;;55.10;;
5762;SDS011;2906;53.282;9.508;2022-08-14T03:29:22;78.80;;;52.10;;
5762;SDS011;2906;53.282;9.508;2022-08-14T03:30:25;93.03;;;75.57;;
5762;SDS011;2906;53.282;9.508;2022-08-14T03:31:26;102.03;;;87.57;;
5762;SDS011;2906;53.282;9.508;2022-08-14T03:32:29;87.83;;;69.17;;
5762;SDS011;2906;53.282;9.508;2022-08-14T03:33:32;94.77;;;81.73;;
5762;SDS011;2906;53.282;9.508;2022-08-14T03:34:36;82.67;;;60.13;;
5762;SDS011;2906;53.282;9.508;2022-08-14T03:35:38;90.33;;;71.87;;
5762;SDS011;2906;53.282;9.508;2022-08-14T03:36:41;85.60;;;63.03;;
5762;SDS011;2906;53.282;9.508;2022-08-14T03:37:43;79.30;;;57.37;;
5762;SDS011;2906;53.282;9.508;2022-08-14T03:38:45;86.47;;;66.13;;
5762;SDS011;2906;53.282;9.508;2022-08-14T03:39:49;79.23;;;54.53;;
5762;SDS011;2906;53.282;9.508;2022-08-14T03:40:50;87.77;;;67.50;;
5762;SDS011;2906;53.282;9.508;2022-08-14T03:41:53;79.20;;;56.80;;
5762;SDS011;2906;53.282;9.508;2022-08-14T03:42:56;81.73;;;61.33;;
5762;SDS011;2906;53.282;9.508;2022-08-14T03:43:59;77.83;;;63.33;;
5762;SDS011;2906;53.282;9.508;2022-08-14T03:45:01;85.50;;;69.10;;
5762;SDS011;2906;53.282;9.508;2022-08-14T03:46:05;80.40;;;60.10;;
5762;SDS011;2906;53.282;9.508;2022-08-14T03:47:12;78.03;;;63.57;;
5762;SDS011;2906;53.282;9.508;2022-08-14T03:48:14;81.40;;;58.43;;
5762;SDS011;2906;53.282;9.508;2022-08-14T03:49:19;74.40;;;54.37;;
5762;SDS011;2906;53.282;9.508;2022-08-14T03:50:23;75.77;;;51.73;;
5762;SDS011;2906;53.282;9.508;2022-08-14T03:51:24;75.27;;;54.27;;
5762;SDS011;2906;53.282;9.508;2022-08-14T03:52:27;74.33;;;39.70;;
5762;SDS011;2906;53.282;9.508;2022-08-14T03:53:28;67.53;;;41.80;;
5762;SDS011;2906;53.282;9.508;2022-08-14T03:54:31;70.47;;;47.13;;
5762;SDS011;2906;53.282;9.508;2022-08-14T03:55:35;71.40;;;44.87;;
5762;SDS011;2906;53.282;9.508;2022-08-14T03:56:38;66.27;;;42.87;;
5762;SDS011;2906;53.282;9.508;2022-08-14T03:57:43;64.10;;;41.03;;
5762;SDS011;2906;53.282;9.508;2022-08-14T03:58:49;63.63;;;38.60;;
5762;SDS011;2906;53.282;9.508;2022-08-14T03:59:50;73.87;;;49.77;;
5762;SDS011;2906;53.282;9.508;2022-08-14T04:00:52;58.30;;;34.20;;
5762;SDS011;2906;53.282;9.508;2022-08-14T04:01:54;57.77;;;30.10;;
5762;SDS011;2906;53.282;9.508;2022-08-14T04:02:56;59.67;;;31.43;;
5762;SDS011;2906;53.282;9.508;2022-08-14T04:03:57;59.07;;;25.90;;
5762;SDS011;2906;53.282;9.508;2022-08-14T04:05:01;57.80;;;31.00;;
5762;SDS011;2906;53.282;9.508;2022-08-14T04:06:03;55.30;;;27.47;;
5762;SDS011;2906;53.282;9.508;2022-08-14T04:07:07;52.07;;;23.97;;
5762;SDS011;2906;53.282;9.508;2022-08-14T04:08:09;56.47;;;27.63;;
5762;SDS011;2906;53.282;9.508;2022-08-14T04:09:12;57.53;;;28.63;;
5762;SDS011;2906;53.282;9.508;2022-08-14T04:10:13;71.33;;;34.50;;
5762;SDS011;2906;53.282;9.508;2022-08-14T04:11:16;58.60;;;29.90;;
5762;SDS011;2906;53.282;9.508;2022-08-14T04:12:17;53.43;;;24.73;;
5762;SDS011;2906;53.282;9.508;2022-08-14T04:13:20;62.43;;;24.00;;
5762;SDS011;2906;53.282;9.508;2022-08-14T04:14:23;54.00;;;22.60;;
5762;SDS011;2906;53.282;9.508;2022-08-14T04:15:25;62.03;;;33.63;;
5762;SDS011;2906;53.282;9.508;2022-08-14T04:16:27;65.00;;;35.07;;
5762;SDS011;2906;53.282;9.508;2022-08-14T04:17:29;65.20;;;22.33;;
5762;SDS011;2906;53.282;9.508;2022-08-14T04:18:32;73.70;;;35.87;;
5762;SDS011;2906;53.282;9.508;2022-08-14T04:19:34;55.27;;;21.57;;
5762;SDS011;2906;53.282;9.508;2022-08-14T04:20:37;52.87;;;23.70;;
5762;SDS011;2906;53.282;9.508;2022-08-14T04:21:39;55.00;;;26.10;;
5762;SDS011;2906;53.282;9.508;2022-08-14T04:22:40;55.50;;;27.20;;
5762;SDS011;2906;53.282;9.508;2022-08-14T04:23:45;50.77;;;21.23;;
5762;SDS011;2906;53.282;9.508;2022-08-14T04:24:46;48.77;;;17.00;;
5762;SDS011;2906;53.282;9.508;2022-08-14T04:25:49;53.43;;;20.50;;
5762;SDS011;2906;53.282;9.508;2022-08-14T04:26:53;51.30;;;22.80;;
5762;SDS011;2906;53.282;9.508;2022-08-14T04:27:55;56.80;;;22.90;;
5762;SDS011;2906;53.282;9.508;2022-08-14T04:28:56;48.87;;;14.00;;
5762;SDS011;2906;53.282;9.508;2022-08-14T04:30:00;53.50;;;16.60;;
5762;SDS011;2906;53.282;9.508;2022-08-14T04:31:02;59.50;;;24.00;;
5762;SDS011;2906;53.282;9.508;2022-08-14T04:32:06;51.40;;;19.03;;
5762;SDS011;2906;53.282;9.508;2022-08-14T04:33:08;51.10;;;15.00;;
5762;SDS011;2906;53.282;9.508;2022-08-14T04:34:10;48.90;;;17.83;;
5762;SDS011;2906;53.282;9.508;2022-08-14T04:35:12;48.90;;;10.50;;
5762;SDS011;2906;53.282;9.508;2022-08-14T04:36:14;57.57;;;27.10;;
5762;SDS011;2906;53.282;9.508;2022-08-14T04:37:18;56.83;;;25.40;;
5762;SDS011;2906;53.282;9.508;2022-08-14T04:38:34;51.27;;;18.23;;
5762;SDS011;2906;53.282;9.508;2022-08-14T04:39:50;53.23;;;23.00;;
5762;SDS011;2906;53.282;9.508;2022-08-14T04:41:08;63.03;;;13.00;;
5762;SDS011;2906;53.282;9.508;2022-08-14T04:42:24;47.43;;;16.40;;
5762;SDS011;2906;53.282;9.508;2022-08-14T04:43:40;56.93;;;24.17;;
5762;SDS011;2906;53.282;9.508;2022-08-14T04:44:43;46.83;;;12.10;;
5762;SDS011;2906;53.282;9.508;2022-08-14T04:45:45;45.30;;;12.63;;
5762;SDS011;2906;53.282;9.508;2022-08-14T04:46:48;49.17;;;14.70;;
5762;SDS011;2906;53.282;9.508;2022-08-14T04:48:04;54.30;;;15.60;;
5762;SDS011;2906;53.282;9.508;2022-08-14T04:49:12;47.00;;;15.00;;
5762;SDS011;2906;53.282;9.508;2022-08-14T04:50:14;55.13;;;17.13;;
5762;SDS011;2906;53.282;9.508;2022-08-14T04:51:16;45.90;;;13.17;;
5762;SDS011;2906;53.282;9.508;2022-08-14T04:52:19;49.07;;;12.73;;
5762;SDS011;2906;53.282;9.508;2022-08-14T04:53:21;55.73;;;23.10;;
5762;SDS011;2906;53.282;9.508;2022-08-14T04:54:23;54.33;;;20.60;;
5762;SDS011;2906;53.282;9.508;2022-08-14T04:55:26;46.80;;;13.10;;
5762;SDS011;2906;53.282;9.508;2022-08-14T04:56:28;50.53;;;14.77;;
5762;SDS011;2906;53.282;9.508;2022-08-14T04:57:30;57.00;;;24.53;;
5762;SDS011;2906;53.282;9.508;2022-08-14T04:58:34;62.77;;;29.23;;
5762;SDS011;2906;53.282;9.508;2022-08-14T04:59:37;47.93;;;10.30;;
5762;SDS011;2906;53.282;9.508;2022-08-14T05:00:38;47.03;;;13.30;;
5762;SDS011;2906;53.282;9.508;2022-08-14T05:01:42;50.03;;;16.60;;
5762;SDS011;2906;53.282;9.508;2022-08-14T05:02:43;45.00;;;11.00;;
5762;SDS011;2906;53.282;9.508;2022-08-14T05:03:55;45.20;;;9.13;;
5762;SDS011;2906;53.282;9.508;2022-08-14T05:04:57;63.33;;;29.73;;
5762;SDS011;2906;53.282;9.508;2022-08-14T05:06:00;48.80;;;11.97;;
5762;SDS011;2906;53.282;9.508;2022-08-14T05:07:01;76.03;;;49.93;;
5762;SDS011;2906;53.282;9.508;2022-08-14T05:08:05;44.20;;;10.03;;
5762;SDS011;2906;53.282;9.508;2022-08-14T05:09:10;47.33;;;13.17;;
5762;SDS011;2906;53.282;9.508;2022-08-14T05:10:12;50.10;;;14.60;;
5762;SDS011;2906;53.282;9.508;2022-08-14T05:11:14;48.37;;;14.60;;
5762;SDS011;2906;53.282;9.508;2022-08-14T05:12:18;45.07;;;10.77;;
5762;SDS011;2906;53.282;9.508;2022-08-14T05:13:20;48.23;;;11.33;;
5762;SDS011;2906;53.282;9.508;2022-08-14T05:14:23;47.53;;;12.93;;
5762;SDS011;2906;53.282;9.508;2022-08-14T05:15:24;48.50;;;14.33;;
5762;SDS011;2906;53.282;9.508;2022-08-14T05:16:28;53.13;;;19.37;;
5762;SDS011;2906;53.282;9.508;2022-08-14T05:17:31;50.47;;;19.13;;
5762;SDS011;2906;53.282;9.508;2022-08-14T05:18:34;51.60;;;19.30;;
5762;SDS011;2906;53.282;9.508;2022-08-14T05:19:36;48.60;;;12.47;;
5762;SDS011;2906;53.282;9.508;2022-08-14T05:20:39;50.80;;;20.67;;
5762;SDS011;2906;53.282;9.508;2022-08-14T05:21:42;56.70;;;26.57;;
5762;SDS011;2906;53.282;9.508;2022-08-14T05:22:45;52.93;;;24.93;;
5762;SDS011;2906;53.282;9.508;2022-08-14T05:23:46;48.00;;;13.70;;
5762;SDS011;2906;53.282;9.508;2022-08-14T05:24:49;52.83;;;19.60;;
5762;SDS011;2906;53.282;9.508;2022-08-14T05:25:51;54.90;;;27.70;;
5762;SDS011;2906;53.282;9.508;2022-08-14T05:26:54;52.30;;;17.13;;
5762;SDS011;2906;53.282;9.508;2022-08-14T05:27:55;48.50;;;16.67;;
5762;SDS011;2906;53.282;9.508;2022-08-14T05:28:59;48.00;;;11.70;;
5762;SDS011;2906;53.282;9.508;2022-08-14T05:30:02;56.83;;;14.53;;
5762;SDS011;2906;53.282;9.508;2022-08-14T05:31:05;46.30;;;10.93;;
5762;SDS011;2906;53.282;9.508;2022-08-14T05:32:07;46.17;;;9.80;;
5762;SDS011;2906;53.282;9.508;2022-08-14T05:33:10;46.40;;;11.40;;
5762;SDS011;2906;53.282;9.508;2022-08-14T05:34:11;50.03;;;14.30;;
5762;SDS011;2906;53.282;9.508;2022-08-14T05:35:14;49.40;;;12.80;;
5762;SDS011;2906;53.282;9.508;2022-08-14T05:36:15;47.17;;;11.27;;
5762;SDS011;2906;53.282;9.508;2022-08-14T05:37:17;45.10;;;10.53;;
5762;SDS011;2906;53.282;9.508;2022-08-14T05:38:20;52.40;;;11.73;;
5762;SDS011;2906;53.282;9.508;2022-08-14T05:39:22;49.03;;;12.50;;
5762;SDS011;2906;53.282;9.508;2022-08-14T05:40:23;50.00;;;17.20;;
5762;SDS011;2906;53.282;9.508;2022-08-14T05:41:26;59.77;;;26.17;;
5762;SDS011;2906;53.282;9.508;2022-08-14T05:42:27;49.43;;;17.43;;
5762;SDS011;2906;53.282;9.508;2022-08-14T05:43:29;62.77;;;29.93;;
5762;SDS011;2906;53.282;9.508;2022-08-14T05:44:31;54.40;;;22.80;;
5762;SDS011;2906;53.282;9.508;2022-08-14T05:45:34;67.53;;;38.00;;
5762;SDS011;2906;53.282;9.508;2022-08-14T05:46:36;58.20;;;30.20;;
5762;SDS011;2906;53.282;9.508;2022-08-14T05:47:38;70.33;;;40.93;;
5762;SDS011;2906;53.282;9.508;2022-08-14T05:48:41;77.17;;;54.73;;
5762;SDS011;2906;53.282;9.508;2022-08-14T05:49:43;88.00;;;68.17;;
5762;SDS011;2906;53.282;9.508;2022-08-14T05:50:45;93.90;;;78.07;;
5762;SDS011;2906;53.282;9.508;2022-08-14T05:51:47;99.00;;;87.37;;
5762;SDS011;2906;53.282;9.508;2022-08-14T05:52:49;103.83;;;86.23;;
5762;SDS011;2906;53.282;9.508;2022-08-14T05:53:51;93.77;;;69.30;;
5762;SDS011;2906;53.282;9.508;2022-08-14T05:54:52;60.57;;;33.77;;
5762;SDS011;2906;53.282;9.508;2022-08-14T05:55:57;82.17;;;63.50;;
5762;SDS011;2906;53.282;9.508;2022-08-14T05:56:59;93.67;;;76.77;;
5762;SDS011;2906;53.282;9.508;2022-08-14T05:58:02;89.70;;;70.93;;
5762;SDS011;2906;53.282;9.508;2022-08-14T05:59:04;60.17;;;28.80;;
5762;SDS011;2906;53.282;9.508;2022-08-14T06:00:06;55.73;;;26.37;;
5762;SDS011;2906;53.282;9.508;2022-08-14T06:01:07;59.67;;;25.40;;
5762;SDS011;2906;53.282;9.508;2022-08-14T06:02:10;60.43;;;31.37;;
5762;SDS011;2906;53.282;9.508;2022-08-14T06:03:12;78.47;;;52.33;;
5762;SDS011;2906;53.282;9.508;2022-08-14T06:04:16;89.23;;;68.47;;
5762;SDS011;2906;53.282;9.508;2022-08-14T06:05:18;50.30;;;18.00;;
5762;SDS011;2906;53.282;9.508;2022-08-14T06:06:20;52.80;;;19.57;;
5762;SDS011;2906;53.282;9.508;2022-08-14T06:07:22;47.60;;;10.73;;
5762;SDS011;2906;53.282;9.508;2022-08-14T06:08:24;56.97;;;26.37;;
5762;SDS011;2906;53.282;9.508;2022-08-14T06:09:26;67.13;;;38.10;;
5762;SDS011;2906;53.282;9.508;2022-08-14T06:10:28;56.60;;;18.00;;
5762;SDS011;2906;53.282;9.508;2022-08-14T06:11:31;55.53;;;22.57;;
5762;SDS011;2906;53.282;9.508;2022-08-14T06:12:33;50.37;;;13.60;;
5762;SDS011;2906;53.282;9.508;2022-08-14T06:13:35;50.30;;;14.00;;
5762;SDS011;2906;53.282;9.508;2022-08-14T06:14:37;45.20;;;11.40;;